Time,TemperatureF,DewpointF,PressureIn,WindDirection,WindDirectionDegrees,WindSpeedMPH,WindSpeedGustMPH,Humidity,HourlyPrecipIn,Conditions,Clouds,dailyrainin,SoftwareType,DateUTC
2013-01-12 00:07:00,64.3,60.0,30.20,ENE,78,0.0,-999.0,85,-99.99,,,0.00,weatherlink.com 1.10,2013-01-12 05:07:00,
2013-01-12 00:22:00,64.2,60.0,30.19,SE,124,0.0,-999.0,85,-99.99,,,0.00,weatherlink.com 1.10,2013-01-12 05:22:00,
2013-01-12 00:37:00,64.2,60.0,30.20,NE,54,0.0,-999.0,85,-99.99,,,0.00,weatherlink.com 1.10,2013-01-12 05:37:00,
2013-01-12 00:52:00,64.3,60.0,30.20,NE,56,0.0,-999.0,85,-99.99,,,0.00,weatherlink.com 1.10,2013-01-12 05:52:00,
2013-01-12 01:07:00,64.3,60.0,30.19,NE,56,0.0,-999.0,85,-99.99,,,0.00,weatherlink.com 1.10,2013-01-12 06:07:00,
2013-01-12 01:22:00,64.3,60.0,30.19,NE,56,0.0,-999.0,86,-99.99,,,0.00,weatherlink.com 1.10,2013-01-12 06:22:00,
2013-01-12 01:37:00,64.2,60.0,30.19,SE,131,0.0,-999.0,85,-99.99,,,0.00,weatherlink.com 1.10,2013-01-12 06:37:00,
2013-01-12 01:52:00,63.9,59.0,30.19,SE,131,0.0,-999.0,85,-99.99,,,0.00,weatherlink.com 1.10,2013-01-12 06:52:00,
2013-01-12 02:07:00,63.5,59.0,30.20,SE,131,0.0,-999.0,85,-99.99,,,0.00,weatherlink.com 1.10,2013-01-12 07:07:00,
2013-01-12 02:22:00,63.1,59.0,30.20,SE,131,0.0,-999.0,85,-99.99,,,0.00,weatherlink.com 1.10,2013-01-12 07:22:00,
2013-01-12 02:37:00,62.7,58.0,30.20,SE,131,0.0,-999.0,85,-99.99,,,0.00,weatherlink.com 1.10,2013-01-12 07:37:00,
2013-01-12 02:52:00,62.6,58.0,30.20,SE,131,0.0,-999.0,85,-99.99,,,0.00,weatherlink.com 1.10,2013-01-12 07:52:00,
2013-01-12 03:07:00,62.6,58.0,30.20,SE,131,0.0,-999.0,85,-99.99,,,0.00,weatherlink.com 1.10,2013-01-12 08:07:00,
2013-01-12 03:22:00,62.6,58.0,30.19,SE,131,0.0,-999.0,85,-99.99,,,0.00,weatherlink.com 1.10,2013-01-12 08:22:00,
2013-01-12 03:37:00,62.4,58.0,30.19,SE,131,0.0,-999.0,85,-99.99,,,0.00,weatherlink.com 1.10,2013-01-12 08:37:00,
2013-01-12 03:52:00,62.3,58.0,30.18,SE,131,0.0,-999.0,85,-99.99,,,0.00,weatherlink.com 1.10,2013-01-12 08:52:00,
2013-01-12 04:07:00,62.6,58.0,30.18,SE,131,0.0,-999.0,86,-99.99,,,0.00,weatherlink.com 1.10,2013-01-12 09:07:00,
2013-01-12 04:22:00,63.1,59.0,30.18,SE,131,0.0,-999.0,86,-99.99,,,0.00,weatherlink.com 1.10,2013-01-12 09:22:00,
2013-01-12 04:37:00,62.9,58.0,30.18,SE,131,0.0,-999.0,85,-99.99,,,0.00,weatherlink.com 1.10,2013-01-12 09:37:00,
2013-01-12 04:52:00,62.4,58.0,30.17,SE,131,0.0,-999.0,85,-99.99,,,0.00,weatherlink.com 1.10,2013-01-12 09:52:00,
2013-01-12 05:07:00,61.8,57.0,30.17,SE,131,0.0,-999.0,85,-99.99,,,0.00,weatherlink.com 1.10,2013-01-12 10:07:00,
2013-01-12 05:22:00,61.2,57.0,30.17,SE,131,0.0,-999.0,85,-99.99,,,0.00,weatherlink.com 1.10,2013-01-12 10:22:00,
2013-01-12 05:37:00,60.4,56.0,30.17,SE,131,0.0,-999.0,85,-99.99,,,0.00,weatherlink.com 1.10,2013-01-12 10:37:00,
2013-01-12 05:52:00,59.8,55.0,30.17,SE,131,0.0,-999.0,85,-99.99,,,0.00,weatherlink.com 1.10,2013-01-12 10:52:00,
2013-01-12 06:07:00,59.2,55.0,30.17,SE,131,0.0,-999.0,85,-99.99,,,0.00,weatherlink.com 1.10,2013-01-12 11:07:00,
2013-01-12 06:22:00,58.7,54.0,30.17,SE,131,0.0,-999.0,85,-99.99,,,0.00,weatherlink.com 1.10,2013-01-12 11:22:00,
2013-01-12 06:37:00,58.4,54.0,30.18,SE,131,0.0,-999.0,85,-99.99,,,0.00,weatherlink.com 1.10,2013-01-12 11:37:00,
2013-01-12 06:52:00,58.3,54.0,30.18,SE,131,0.0,-999.0,85,-99.99,,,0.00,weatherlink.com 1.10,2013-01-12 11:52:00,
2013-01-12 07:07:00,58.3,54.0,30.18,SE,131,0.0,-999.0,85,-99.99,,,0.00,weatherlink.com 1.10,2013-01-12 12:07:00,
2013-01-12 07:22:00,58.0,54.0,30.19,SE,131,0.0,-999.0,85,-99.99,,,0.00,weatherlink.com 1.10,2013-01-12 12:22:00,
2013-01-12 07:37:00,58.0,54.0,30.20,SE,131,0.0,-999.0,85,-99.99,,,0.00,weatherlink.com 1.10,2013-01-12 12:37:00,
2013-01-12 07:52:00,57.8,54.0,30.20,SE,131,0.0,-999.0,86,-99.99,,,0.00,weatherlink.com 1.10,2013-01-12 12:52:00,
2013-01-12 08:07:00,57.8,54.0,30.20,SE,131,0.0,-999.0,86,-99.99,,,0.00,weatherlink.com 1.10,2013-01-12 13:07:00,
2013-01-12 08:22:00,58.0,54.0,30.20,SE,131,0.0,-999.0,86,-99.99,,,0.00,weatherlink.com 1.10,2013-01-12 13:22:00,
2013-01-12 08:37:00,58.6,55.0,30.20,SE,131,0.0,-999.0,86,-99.99,,,0.00,weatherlink.com 1.10,2013-01-12 13:37:00,
2013-01-12 08:52:00,59.6,56.0,30.20,SE,131,0.0,-999.0,87,-99.99,,,0.00,weatherlink.com 1.10,2013-01-12 13:52:00,
2013-01-12 09:07:00,60.7,57.0,30.21,SE,131,0.0,-999.0,87,-99.99,,,0.00,weatherlink.com 1.10,2013-01-12 14:07:00,
2013-01-12 09:22:00,62.3,58.0,30.21,SE,131,0.0,-999.0,87,-99.99,,,0.00,weatherlink.com 1.10,2013-01-12 14:22:00,
2013-01-12 09:37:00,63.5,60.0,30.21,SE,131,0.0,-999.0,87,-99.99,,,0.00,weatherlink.com 1.10,2013-01-12 14:37:00,
2013-01-12 09:52:00,64.5,61.0,30.21,SE,131,0.0,-999.0,87,-99.99,,,0.00,weatherlink.com 1.10,2013-01-12 14:52:00,
2013-01-12 10:07:00,65.3,61.0,30.21,ESE,116,0.0,-999.0,87,-99.99,,,0.00,weatherlink.com 1.10,2013-01-12 15:07:00,
2013-01-12 10:22:00,66.3,62.0,30.21,ESE,116,0.0,-999.0,87,-99.99,,,0.00,weatherlink.com 1.10,2013-01-12 15:22:00,
2013-01-12 10:37:00,66.8,62.0,30.20,ESE,116,0.0,-999.0,85,-99.99,,,0.00,weatherlink.com 1.10,2013-01-12 15:37:00,
2013-01-12 10:52:00,67.1,62.0,30.20,ESE,116,0.0,-999.0,84,-99.99,,,0.00,weatherlink.com 1.10,2013-01-12 15:52:00,
2013-01-12 11:07:00,68.4,63.0,30.20,ESE,116,0.0,-999.0,83,-99.99,,,0.00,weatherlink.com 1.10,2013-01-12 16:07:00,
2013-01-12 11:22:00,69.1,63.0,30.20,ESE,116,1.0,-999.0,81,-99.99,,,0.00,weatherlink.com 1.10,2013-01-12 16:22:00,
2013-01-12 11:38:00,70.1,63.0,30.19,ESE,116,0.0,-999.0,79,-99.99,,,0.00,weatherlink.com 1.10,2013-01-12 16:38:00,
2013-01-12 11:53:00,70.8,63.0,30.18,ESE,116,0.0,-999.0,77,-99.99,,,0.00,weatherlink.com 1.10,2013-01-12 16:53:00,
2013-01-12 12:08:00,71.3,63.0,30.17,ESE,116,0.0,-999.0,76,-99.99,,,0.00,weatherlink.com 1.10,2013-01-12 17:08:00,
2013-01-12 12:23:00,71.3,63.0,30.17,ESE,116,0.0,-999.0,75,-99.99,,,0.00,weatherlink.com 1.10,2013-01-12 17:23:00,
2013-01-12 12:38:00,72.3,63.0,30.17,ESE,116,0.0,-999.0,72,-99.99,,,0.00,weatherlink.com 1.10,2013-01-12 17:38:00,
2013-01-12 12:53:00,73.5,63.0,30.17,ESE,116,0.0,-999.0,70,-99.99,,,0.00,weatherlink.com 1.10,2013-01-12 17:53:00,
2013-01-12 13:08:00,74.7,63.0,30.17,ESE,116,1.0,-999.0,67,-99.99,,,0.00,weatherlink.com 1.10,2013-01-12 18:08:00,
2013-01-12 13:24:00,75.6,63.0,30.16,ESE,116,0.0,-999.0,64,-99.99,,,0.00,weatherlink.com 1.10,2013-01-12 18:24:00,
2013-01-12 13:38:00,76.5,62.0,30.16,ESE,116,0.0,-999.0,62,-99.99,,,0.00,weatherlink.com 1.10,2013-01-12 18:38:00,
2013-01-12 13:53:00,77.0,62.0,30.16,ESE,116,0.0,-999.0,61,-99.99,,,0.00,weatherlink.com 1.10,2013-01-12 18:53:00,
2013-01-12 14:08:00,77.6,62.0,30.16,ESE,116,0.0,-999.0,59,-99.99,,,0.00,weatherlink.com 1.10,2013-01-12 19:08:00,
2013-01-12 14:23:00,77.6,62.0,30.16,ESE,116,0.0,-999.0,58,-99.99,,,0.00,weatherlink.com 1.10,2013-01-12 19:23:00,
2013-01-12 14:38:00,76.5,61.0,30.16,ESE,116,1.0,-999.0,59,-99.99,,,0.00,weatherlink.com 1.10,2013-01-12 19:38:00,
2013-01-12 14:53:00,74.9,60.0,30.16,ESE,116,0.0,-999.0,60,-99.99,,,0.00,weatherlink.com 1.10,2013-01-12 19:53:00,
2013-01-12 15:08:00,73.9,59.0,30.16,ESE,116,0.0,-999.0,61,-99.99,,,0.00,weatherlink.com 1.10,2013-01-12 20:08:00,
2013-01-12 15:23:00,74.4,60.0,30.16,ESE,116,0.0,-999.0,61,-99.99,,,0.00,weatherlink.com 1.10,2013-01-12 20:23:00,
2013-01-12 15:38:00,75.1,60.0,30.16,ESE,116,0.0,-999.0,60,-99.99,,,0.00,weatherlink.com 1.10,2013-01-12 20:38:00,
2013-01-12 15:53:00,74.9,59.0,30.16,ESE,116,1.0,-999.0,59,-99.99,,,0.00,weatherlink.com 1.10,2013-01-12 20:53:00,
2013-01-12 16:08:00,73.0,58.0,30.16,ESE,116,1.0,-999.0,60,-99.99,,,0.00,weatherlink.com 1.10,2013-01-12 21:08:00,
2013-01-12 16:23:00,71.3,57.0,30.16,ESE,116,0.0,-999.0,62,-99.99,,,0.00,weatherlink.com 1.10,2013-01-12 21:23:00,
2013-01-12 16:38:00,70.4,58.0,30.16,ESE,116,0.0,-999.0,64,-99.99,,,0.00,weatherlink.com 1.10,2013-01-12 21:38:00,
2013-01-12 16:53:00,68.9,57.0,30.16,ESE,115,0.0,-999.0,65,-99.99,,,0.00,weatherlink.com 1.10,2013-01-12 21:53:00,
2013-01-12 17:08:00,67.6,56.0,30.16,ESE,115,0.0,-999.0,67,-99.99,,,0.00,weatherlink.com 1.10,2013-01-12 22:08:00,
2013-01-12 17:23:00,66.9,57.0,30.16,ESE,115,0.0,-999.0,70,-99.99,,,0.00,weatherlink.com 1.10,2013-01-12 22:23:00,
2013-01-12 17:38:00,66.3,57.0,30.16,ESE,115,0.0,-999.0,71,-99.99,,,0.00,weatherlink.com 1.10,2013-01-12 22:38:00,
2013-01-12 17:53:00,65.6,57.0,30.17,ESE,115,0.0,-999.0,73,-99.99,,,0.00,weatherlink.com 1.10,2013-01-12 22:53:00,
2013-01-12 18:08:00,65.2,57.0,30.16,East,96,0.0,-999.0,74,-99.99,,,0.00,weatherlink.com 1.10,2013-01-12 23:08:00,
2013-01-12 18:23:00,64.5,56.0,30.17,East,96,0.0,-999.0,75,-99.99,,,0.00,weatherlink.com 1.10,2013-01-12 23:23:00,
2013-01-12 18:38:00,64.2,57.0,30.17,East,96,0.0,-999.0,76,-99.99,,,0.00,weatherlink.com 1.10,2013-01-12 23:38:00,
2013-01-12 18:53:00,63.9,57.0,30.16,East,96,1.0,-999.0,77,-99.99,,,0.00,weatherlink.com 1.10,2013-01-12 23:53:00,
2013-01-12 19:08:00,63.5,57.0,30.15,East,96,0.0,-999.0,78,-99.99,,,0.00,weatherlink.com 1.10,2013-01-13 00:08:00,
2013-01-12 19:23:00,63.2,56.0,30.15,East,96,0.0,-999.0,78,-99.99,,,0.00,weatherlink.com 1.10,2013-01-13 00:23:00,
2013-01-12 19:38:00,62.9,56.0,30.15,East,96,0.0,-999.0,79,-99.99,,,0.00,weatherlink.com 1.10,2013-01-13 00:38:00,
2013-01-12 19:53:00,62.7,56.0,30.15,East,96,0.0,-999.0,80,-99.99,,,0.00,weatherlink.com 1.10,2013-01-13 00:53:00,
2013-01-12 20:08:00,62.6,56.0,30.14,East,96,0.0,-999.0,80,-99.99,,,0.00,weatherlink.com 1.10,2013-01-13 01:08:00,
2013-01-12 20:23:00,62.6,56.0,30.14,East,96,0.0,-999.0,80,-99.99,,,0.00,weatherlink.com 1.10,2013-01-13 01:23:00,
2013-01-12 20:38:00,62.3,56.0,30.14,East,96,0.0,-999.0,80,-99.99,,,0.00,weatherlink.com 1.10,2013-01-13 01:38:00,
2013-01-12 20:53:00,62.1,56.0,30.14,East,96,0.0,-999.0,80,-99.99,,,0.00,weatherlink.com 1.10,2013-01-13 01:53:00,
2013-01-12 21:08:00,62.0,56.0,30.14,East,96,0.0,-999.0,80,-99.99,,,0.00,weatherlink.com 1.10,2013-01-13 02:08:00,
2013-01-12 21:23:00,61.6,55.0,30.13,East,96,0.0,-999.0,80,-99.99,,,0.00,weatherlink.com 1.10,2013-01-13 02:23:00,
2013-01-12 21:38:00,61.5,55.0,30.13,East,96,0.0,-999.0,80,-99.99,,,0.00,weatherlink.com 1.10,2013-01-13 02:38:00,
2013-01-12 21:53:00,61.6,56.0,30.13,East,96,0.0,-999.0,81,-99.99,,,0.00,weatherlink.com 1.10,2013-01-13 02:53:00,
2013-01-12 22:08:00,62.0,56.0,30.14,East,96,0.0,-999.0,81,-99.99,,,0.00,weatherlink.com 1.10,2013-01-13 03:08:00,
2013-01-12 22:23:00,62.6,56.0,30.15,ENE,64,0.0,-999.0,80,-99.99,,,0.00,weatherlink.com 1.10,2013-01-13 03:23:00,
2013-01-12 22:38:00,63.1,57.0,30.14,ENE,75,0.0,-999.0,80,-99.99,,,0.00,weatherlink.com 1.10,2013-01-13 03:38:00,
2013-01-12 22:53:00,63.4,57.0,30.14,ENE,75,0.0,-999.0,80,-99.99,,,0.00,weatherlink.com 1.10,2013-01-13 03:53:00,
2013-01-12 23:08:00,63.4,57.0,30.15,ENE,75,0.0,-999.0,80,-99.99,,,0.00,weatherlink.com 1.10,2013-01-13 04:08:00,
2013-01-12 23:23:00,63.4,57.0,30.14,ESE,120,0.0,-999.0,80,-99.99,,,0.00,weatherlink.com 1.10,2013-01-13 04:23:00,
2013-01-12 23:38:00,63.4,57.0,30.14,ESE,119,0.0,-999.0,80,-99.99,,,0.00,weatherlink.com 1.10,2013-01-13 04:38:00,
2013-01-12 23:53:00,63.2,57.0,30.14,East,86,0.0,-999.0,80,-99.99,,,0.00,weatherlink.com 1.10,2013-01-13 04:53:00,